Corning, Iowa
Current Conditions -  °F | °C
As of 6:35 PM on Saturday 25 Oct 2014 (Local Time) from KCSQ Reporting Station
Clear Clear  
Wind Chill: 63°   Ceiling: Unl
Heat Index: 63°   Visibility: 10mi
Dew Point: 43°   Wind: 7mph
Humidity: 48%   Direction: 50°NE
Pressure: 30.06"   Gusts: NA
Location:  40.99°N, 94.74°W
Report Text: KCSQ 252335Z AUTO 05006KT 10SM CLR 17/06 A3006 RMK AO2
Loading
Personal Weather Stations






























Interactive Weather Map New forecast layout! Learn more

10-Day Weather Forecast

Advertisements
Track Severe Weather on mobile